createdAt,value
2023-05-05T00:02:22.263Z,10.45
2023-05-05T00:07:24.367Z,10.38
2023-05-05T00:12:26.198Z,10.31
2023-05-05T00:17:28.153Z,10.22
2023-05-05T00:22:30.070Z,10.17
2023-05-05T00:27:32.110Z,10.11
2023-05-05T00:32:33.856Z,10.03
2023-05-05T00:37:36.284Z,9.98
2023-05-05T00:42:42.743Z,9.93
2023-05-05T00:48:05.953Z,9.90
2023-05-05T00:53:08.033Z,9.84
2023-05-05T00:58:10.345Z,9.79
2023-05-05T01:03:15.673Z,9.76
2023-05-05T01:08:38.509Z,9.71
2023-05-05T01:14:17.506Z,9.67
2023-05-05T01:19:34.301Z,9.60
2023-05-05T01:25:01.682Z,9.53
2023-05-05T01:30:15.568Z,9.47
2023-05-05T01:35:27.638Z,9.43
2023-05-05T01:40:33.879Z,9.37
2023-05-05T01:45:39.184Z,9.31
2023-05-05T01:50:43.094Z,9.27
2023-05-05T01:55:47.132Z,9.23
2023-05-05T02:06:07.817Z,9.16
2023-05-05T02:11:11.468Z,9.11
2023-05-05T02:16:14.340Z,9.06
2023-05-05T02:21:18.363Z,9.04
2023-05-05T02:26:24.023Z,8.99
2023-05-05T02:31:27.583Z,8.94
2023-05-05T02:36:33.966Z,8.88
2023-05-05T02:41:39.757Z,8.85
2023-05-05T02:46:43.389Z,8.80
2023-05-05T02:51:45.444Z,8.75
2023-05-05T02:56:51.793Z,8.70
2023-05-05T03:02:32.951Z,8.67
2023-05-05T03:07:41.304Z,8.59
2023-05-05T03:12:57.062Z,8.53
2023-05-05T03:18:00.724Z,8.49
2023-05-05T03:23:03.293Z,8.45
2023-05-05T03:28:05.288Z,8.42
2023-05-05T03:33:08.620Z,8.38
2023-05-05T03:38:10.836Z,8.37
2023-05-05T03:43:12.739Z,8.34
2023-05-05T03:48:14.776Z,8.35
2023-05-05T03:53:16.777Z,8.36
2023-05-05T03:58:19.173Z,8.39
2023-05-05T04:03:21.341Z,8.39
2023-05-05T04:08:23.550Z,8.43
2023-05-05T04:13:25.496Z,8.45
2023-05-05T04:18:27.508Z,8.44
2023-05-05T04:23:29.562Z,8.48
2023-05-05T04:28:31.411Z,8.53
2023-05-05T04:33:33.494Z,8.58
2023-05-05T04:38:35.424Z,8.65
2023-05-05T04:43:37.543Z,8.72
2023-05-05T04:48:39.390Z,8.79
2023-05-05T04:53:41.362Z,8.89
2023-05-05T04:58:43.447Z,9.07
2023-05-05T05:03:46.203Z,9.18
2023-05-05T05:08:48.306Z,9.34
2023-05-05T05:13:50.515Z,9.57
2023-05-05T05:18:52.642Z,9.72
2023-05-05T05:23:54.704Z,9.88
2023-05-05T05:28:56.686Z,10.05
2023-05-05T05:33:58.663Z,10.21
2023-05-05T05:39:00.652Z,10.39
2023-05-05T05:44:02.692Z,10.56
2023-05-05T05:49:04.711Z,10.73
2023-05-05T05:54:06.828Z,10.98
2023-05-05T05:59:10.436Z,11.32
2023-05-05T06:04:13.790Z,11.73
2023-05-05T06:09:16.027Z,12.18
2023-05-05T06:14:19.499Z,12.59
2023-05-05T06:19:22.110Z,12.97
2023-05-05T06:24:24.318Z,13.32
2023-05-05T06:29:28.928Z,13.67
2023-05-05T06:34:31.080Z,14.20
2023-05-05T06:39:33.091Z,14.50
2023-05-05T06:44:36.733Z,14.91
2023-05-05T06:49:38.754Z,15.25
2023-05-05T06:54:40.963Z,15.64
2023-05-05T06:59:43.030Z,16.14
2023-05-05T07:04:45.168Z,16.59
2023-05-05T07:09:47.357Z,16.94
2023-05-05T07:14:49.503Z,17.62
2023-05-05T07:19:52.020Z,17.80
2023-05-05T07:24:54.089Z,18.21
2023-05-05T07:29:56.141Z,18.27
2023-05-05T07:34:58.230Z,18.34
2023-05-05T07:40:00.189Z,18.47
2023-05-05T07:45:02.548Z,18.56
2023-05-05T07:50:05.121Z,18.63
2023-05-05T07:55:07.322Z,18.87
2023-05-05T08:00:10.635Z,18.81
2023-05-05T08:05:13.009Z,18.72
2023-05-05T08:10:15.132Z,18.85
2023-05-05T08:15:17.235Z,19.15
2023-05-05T08:20:21.115Z,19.60
2023-05-05T08:25:23.264Z,19.46
2023-05-05T08:30:25.419Z,19.77
2023-05-05T08:35:27.547Z,19.95
2023-05-05T08:40:34.553Z,20.21
2023-05-05T08:45:37.677Z,20.68
2023-05-05T08:50:40.669Z,20.79
2023-05-05T08:55:52.621Z,20.95
2023-05-05T09:00:56.064Z,21.24
2023-05-05T09:05:58.764Z,21.60
2023-05-05T09:11:02.210Z,21.75
2023-05-05T09:16:04.523Z,21.76
2023-05-05T09:21:27.013Z,22.30
2023-05-05T09:26:33.597Z,22.18
2023-05-05T09:31:38.114Z,22.22
2023-05-05T09:36:49.998Z,22.36
2023-05-05T09:41:53.154Z,22.36
2023-05-05T09:46:56.048Z,22.52
2023-05-05T09:51:58.268Z,22.57
2023-05-05T09:57:00.280Z,22.38
2023-05-05T10:02:15.989Z,22.23
2023-05-05T10:07:27.810Z,22.15
2023-05-05T10:12:31.646Z,21.93
2023-05-05T10:17:58.335Z,21.90
2023-05-05T10:23:08.555Z,21.95
2023-05-05T10:28:16.384Z,21.93
2023-05-05T10:33:34.479Z,21.96
2023-05-05T10:38:37.586Z,21.87
2023-05-05T10:43:40.669Z,21.84
2023-05-05T10:49:15.305Z,21.82
2023-05-05T10:54:37.152Z,21.88
2023-05-05T10:59:41.786Z,21.87
2023-05-05T11:04:44.095Z,21.86
2023-05-05T11:09:57.434Z,21.76
2023-05-05T11:15:21.362Z,21.79
2023-05-05T11:20:49.931Z,21.79
2023-05-05T11:25:53.202Z,21.30
2023-05-05T11:30:55.371Z,20.86
2023-05-05T11:35:59.021Z,20.49
2023-05-05T11:41:12.732Z,20.79
2023-05-05T11:46:17.367Z,21.19
2023-05-05T11:51:19.974Z,20.95
2023-05-05T11:56:24.750Z,20.89
2023-05-05T12:01:27.132Z,20.84
2023-05-05T12:06:33.347Z,20.87
2023-05-05T12:11:35.428Z,20.61
2023-05-05T12:16:38.790Z,20.58
2023-05-05T12:21:40.955Z,20.67
2023-05-05T12:26:43.397Z,20.44
2023-05-05T12:31:45.562Z,20.30
2023-05-05T12:36:47.974Z,20.46
2023-05-05T12:41:51.031Z,20.54
2023-05-05T12:46:59.487Z,20.30
2023-05-05T12:52:05.982Z,20.23
2023-05-05T12:57:12.254Z,20.15
2023-05-05T13:02:15.800Z,20.02
2023-05-05T13:07:20.036Z,20.33
2023-05-05T13:12:23.314Z,20.29
2023-05-05T13:17:27.341Z,20.33
2023-05-05T13:22:29.594Z,20.42
2023-05-05T13:27:31.949Z,20.07
2023-05-05T13:32:34.269Z,20.23
2023-05-05T13:37:36.461Z,20.40
2023-05-05T13:42:38.781Z,20.49
2023-05-05T13:47:42.276Z,20.21
2023-05-05T13:52:46.514Z,20.12
2023-05-05T13:57:49.233Z,19.78
2023-05-05T14:02:52.849Z,19.52
2023-05-05T14:07:56.542Z,19.29
2023-05-05T14:12:59.062Z,19.19
2023-05-05T14:18:02.182Z,18.93
2023-05-05T14:23:04.752Z,18.85
2023-05-05T14:28:07.695Z,18.58
2023-05-05T14:33:12.745Z,18.51
2023-05-05T14:38:14.974Z,18.37
2023-05-05T14:43:19.631Z,18.42
2023-05-05T14:48:23.244Z,18.26
2023-05-05T14:53:25.368Z,18.20
2023-05-05T14:58:27.697Z,17.77
2023-05-05T15:03:34.522Z,17.72
2023-05-05T15:08:39.446Z,17.49
2023-05-05T15:14:06.095Z,17.29
2023-05-05T15:19:10.412Z,17.24
2023-05-05T15:24:12.849Z,17.12
2023-05-05T15:29:15.101Z,16.78
2023-05-05T15:34:17.376Z,16.86
2023-05-05T15:39:19.986Z,16.67
2023-05-05T15:44:22.396Z,16.50
2023-05-05T15:49:24.739Z,16.30
2023-05-05T15:54:27.675Z,15.99
2023-05-05T15:59:30.246Z,15.86
2023-05-05T16:04:32.798Z,15.69
2023-05-05T16:09:38.834Z,15.62
2023-05-05T16:14:41.278Z,15.44
2023-05-05T16:19:43.907Z,15.35
2023-05-05T16:24:46.247Z,15.24
2023-05-05T16:29:48.522Z,15.10
2023-05-05T16:34:51.003Z,14.99
2023-05-05T16:39:53.781Z,14.81
2023-05-05T16:44:56.915Z,14.68
2023-05-05T16:49:59.202Z,14.58
2023-05-05T16:55:01.436Z,14.49
2023-05-05T17:00:05.289Z,14.38
2023-05-05T17:05:08.072Z,14.22
2023-05-05T17:10:11.496Z,14.18
2023-05-05T17:15:14.092Z,14.07
2023-05-05T17:20:16.784Z,13.87
2023-05-05T17:25:19.381Z,13.67
2023-05-05T17:30:21.802Z,13.46
2023-05-05T17:35:24.084Z,13.30
2023-05-05T17:45:44.308Z,13.04
2023-05-05T17:50:50.439Z,12.82
2023-05-05T17:55:52.857Z,12.72
2023-05-05T18:00:55.205Z,12.67
2023-05-05T18:05:57.934Z,12.41
2023-05-05T18:11:00.110Z,12.44
2023-05-05T18:16:02.306Z,12.24
2023-05-05T18:21:04.583Z,12.15
2023-05-05T18:26:07.624Z,12.13
2023-05-05T18:31:09.941Z,12.02
2023-05-05T18:36:12.412Z,11.93
2023-05-05T18:41:15.829Z,11.97
2023-05-05T18:46:19.807Z,11.83
2023-05-05T18:51:23.207Z,11.80
2023-05-05T18:56:28.969Z,11.71
2023-05-05T19:01:33.495Z,11.66
2023-05-05T19:06:39.842Z,11.66
2023-05-05T19:11:44.442Z,11.55
2023-05-05T19:27:58.235Z,11.45
2023-05-05T19:40:24.824Z,11.40
2023-05-05T19:57:15.879Z,11.10
2023-05-05T20:02:17.990Z,11.11
2023-05-05T20:07:20.469Z,10.99
2023-05-05T20:12:23.890Z,10.95
2023-05-05T20:17:26.683Z,10.87
2023-05-05T20:22:29.597Z,10.72
2023-05-05T20:27:34.093Z,10.63
2023-05-05T20:32:39.002Z,10.61
2023-05-05T20:37:42.366Z,10.49
2023-05-05T20:42:44.874Z,10.46
2023-05-05T20:47:47.474Z,10.35
2023-05-05T20:52:50.267Z,10.31
2023-05-05T20:57:52.369Z,10.16
2023-05-05T21:02:54.707Z,10.08
2023-05-05T21:07:58.539Z,10.00
2023-05-05T21:13:03.191Z,9.88
2023-05-05T21:18:05.985Z,9.80
2023-05-05T21:23:08.077Z,9.73
2023-05-05T21:28:10.319Z,9.75
2023-05-05T21:33:12.634Z,9.68
2023-05-05T21:38:15.124Z,9.60
2023-05-05T21:43:17.448Z,9.57
2023-05-05T21:48:20.602Z,9.52
2023-05-05T21:53:23.086Z,9.46
2023-05-05T21:58:25.518Z,9.37
2023-05-05T22:03:27.609Z,9.34
2023-05-05T22:08:29.807Z,9.29
2023-05-05T22:13:31.746Z,9.28
2023-05-05T22:18:34.674Z,9.22
2023-05-05T22:23:37.599Z,9.18
2023-05-05T22:28:39.642Z,9.10
2023-05-05T22:33:41.510Z,9.08
2023-05-05T22:38:43.496Z,9.09
2023-05-05T22:43:45.629Z,9.00
2023-05-05T22:48:47.653Z,8.92
2023-05-05T22:53:49.549Z,8.94
2023-05-05T22:58:51.580Z,8.95
2023-05-05T23:03:53.489Z,8.99
2023-05-05T23:08:55.580Z,8.96
2023-05-05T23:13:57.426Z,8.95
2023-05-05T23:18:59.395Z,8.95
2023-05-05T23:24:01.355Z,8.92
2023-05-05T23:29:03.275Z,8.89
2023-05-05T23:34:05.212Z,8.88
2023-05-05T23:39:07.765Z,8.86
2023-05-05T23:44:09.727Z,8.88
2023-05-05T23:49:11.698Z,8.84
2023-05-05T23:54:13.646Z,8.84
2023-05-05T23:59:15.669Z,8.83
